Time;durP1;ratioP1;P1;durP2;ratioP2;P2;SDS_P1;SDS_P2;PMS_P1;PMS_P2;Temp;Humidity;BMP_temperature;BMP_pressure;BME280_temperature;BME280_humidity;BME280_pressure;Samples;Min_cycle;Max_cycle;Signal;HPM_P1;HPM_P2
2021/11/08 00:01:08;;;;;;;5.97;1.60;;;8.00;99.90;;;;;;5002139;28;20030;-79
2021/11/08 00:03:36;;;;;;;5.18;1.42;;;8.00;99.90;;;;;;5006054;28;20704;-78
2021/11/08 00:06:04;;;;;;;4.22;1.67;;;8.10;99.90;;;;;;5008454;28;20060;-78
2021/11/08 00:08:30;;;;;;;10.73;2.33;;;8.10;99.90;;;;;;4997884;28;20045;-77
2021/11/08 00:10:56;;;;;;;3.90;1.40;;;8.10;99.90;;;;;;4996716;28;20403;-78
2021/11/08 00:13:24;;;;;;;5.43;1.60;;;8.10;99.90;;;;;;4998302;28;20513;-81
2021/11/08 00:16:15;;;;;;;8.38;1.98;;;8.10;99.90;;;;;;5012443;28;20034;-79
2021/11/08 00:21:28;;;;;;;6.68;1.63;;;8.10;99.90;;;;;;4994493;28;20104;-81
2021/11/08 00:23:54;;;;;;;4.43;1.42;;;8.20;99.90;;;;;;4997871;28;21129;-78
2021/11/08 00:26:20;;;;;;;9.88;2.85;;;8.20;99.90;;;;;;5006402;28;20038;-80
2021/11/08 00:28:45;;;;;;;5.88;1.67;;;8.20;99.90;;;;;;5008910;28;20046;-78
2021/11/08 00:31:11;;;;;;;7.25;1.77;;;8.20;99.90;;;;;;5000790;28;20089;-77
2021/11/08 00:33:39;;;;;;;9.25;2.05;;;8.20;99.90;;;;;;5009917;28;20041;-79
2021/11/08 00:36:04;;;;;;;11.88;2.45;;;8.20;99.90;;;;;;5008538;28;20097;-81
2021/11/08 00:38:31;;;;;;;11.13;2.13;;;8.20;99.90;;;;;;5007045;28;20133;-80
2021/11/08 00:40:58;;;;;;;10.60;1.80;;;8.30;99.90;;;;;;5023001;28;20403;-80
2021/11/08 00:43:24;;;;;;;6.60;1.83;;;8.30;99.90;;;;;;5001831;28;20065;-79
2021/11/08 00:45:51;;;;;;;8.02;1.90;;;8.40;99.90;;;;;;5007422;28;20399;-80
2021/11/08 00:48:19;;;;;;;10.60;1.80;;;8.40;99.90;;;;;;4990518;28;20042;-81
2021/11/08 00:50:47;;;;;;;6.40;2.03;;;8.30;99.90;;;;;;4999404;28;20040;-82
2021/11/08 00:53:13;;;;;;;6.57;2.08;;;8.40;99.90;;;;;;5011311;28;20022;-80
2021/11/08 00:55:41;;;;;;;12.18;1.63;;;8.40;99.90;;;;;;5016073;28;20530;-79
2021/11/08 00:58:13;;;;;;;10.88;1.85;;;8.40;99.80;;;;;;5010211;28;20026;-80
2021/11/08 01:00:39;;;;;;;11.30;2.75;;;8.40;99.90;;;;;;5005553;28;20033;-80
2021/11/08 01:03:06;;;;;;;10.45;2.22;;;8.40;99.90;;;;;;5008033;28;20054;-82
2021/11/08 01:05:32;;;;;;;12.93;2.20;;;8.40;99.90;;;;;;5002487;28;20579;-80
2021/11/08 01:07:58;;;;;;;8.32;2.53;;;8.40;99.80;;;;;;5009085;28;20564;-78
2021/11/08 01:10:24;;;;;;;5.93;2.00;;;8.50;99.70;;;;;;5004747;28;20110;-79
2021/11/08 01:12:49;;;;;;;5.90;1.77;;;8.60;99.80;;;;;;5014453;28;20038;-79
2021/11/08 01:15:16;;;;;;;7.13;2.03;;;8.60;99.70;;;;;;5001189;28;20427;-77
2021/11/08 01:17:42;;;;;;;11.32;2.00;;;8.60;99.50;;;;;;5002190;28;20045;-80
2021/11/08 01:20:09;;;;;;;8.45;2.05;;;8.60;99.50;;;;;;5004146;28;20041;-80
2021/11/08 01:22:36;;;;;;;4.78;1.70;;;8.60;99.70;;;;;;4997763;28;20530;-78
2021/11/08 01:25:04;;;;;;;5.70;1.90;;;8.60;99.40;;;;;;5011575;28;20037;-77
2021/11/08 01:27:35;;;;;;;10.90;1.95;;;8.60;99.50;;;;;;5009687;28;20030;-79
2021/11/08 01:30:04;;;;;;;6.80;1.80;;;8.60;99.50;;;;;;5017957;28;20025;-80
2021/11/08 01:32:30;;;;;;;9.98;2.75;;;8.50;99.70;;;;;;5004111;28;20036;-76
2021/11/08 01:34:57;;;;;;;7.20;2.10;;;8.50;99.60;;;;;;4998020;28;20108;-79
2021/11/08 01:37:22;;;;;;;10.15;1.85;;;8.50;99.60;;;;;;5007092;28;20029;-80
2021/11/08 01:39:48;;;;;;;5.32;2.25;;;8.30;99.90;;;;;;5014738;28;20368;-81
2021/11/08 01:42:15;;;;;;;8.77;2.17;;;8.40;99.90;;;;;;5007268;28;20380;-82
2021/11/08 01:44:42;;;;;;;3.92;1.55;;;8.40;99.90;;;;;;5011918;28;20026;-81
2021/11/08 01:47:08;;;;;;;8.57;1.52;;;8.40;99.90;;;;;;4993853;28;20491;-81
2021/11/08 01:49:35;;;;;;;8.43;1.75;;;8.40;99.90;;;;;;5016938;28;20034;-79
2021/11/08 01:52:01;;;;;;;11.32;2.50;;;8.40;99.90;;;;;;4994635;28;20034;-81
2021/11/08 01:54:27;;;;;;;7.88;1.83;;;8.50;99.90;;;;;;5004524;28;20037;-82
2021/11/08 01:56:55;;;;;;;9.13;2.65;;;8.60;99.80;;;;;;4997472;28;20038;-79
2021/11/08 01:59:23;;;;;;;5.47;1.65;;;8.60;99.70;;;;;;5011732;28;20521;-80
2021/11/08 02:01:50;;;;;;;11.00;1.92;;;8.60;99.60;;;;;;5007682;28;20045;-81
2021/11/08 02:04:16;;;;;;;9.55;1.92;;;8.60;99.50;;;;;;4999722;28;20034;-80
2021/11/08 02:06:42;;;;;;;7.03;1.90;;;8.60;99.50;;;;;;5007314;28;20037;-81
2021/11/08 02:09:07;;;;;;;8.02;2.17;;;8.60;99.60;;;;;;4999365;28;20037;-79
2021/11/08 02:11:35;;;;;;;7.18;1.90;;;8.60;99.60;;;;;;5000790;28;20394;-80
2021/11/08 02:14:01;;;;;;;12.82;2.08;;;8.50;99.50;;;;;;4995529;28;20038;-80
2021/11/08 02:16:27;;;;;;;7.93;1.45;;;8.50;99.60;;;;;;4992317;28;20029;-80
2021/11/08 02:18:52;;;;;;;6.22;2.13;;;8.50;99.60;;;;;;5000678;28;20045;-80
2021/11/08 02:21:18;;;;;;;10.38;2.33;;;8.40;99.60;;;;;;5003150;28;20034;-77
2021/11/08 02:23:47;;;;;;;7.32;1.92;;;8.30;99.80;;;;;;5008313;28;20037;-80
2021/11/08 02:26:16;;;;;;;7.47;1.50;;;8.40;99.90;;;;;;4997720;28;20432;-81
2021/11/08 02:28:44;;;;;;;7.18;1.80;;;8.30;99.90;;;;;;5003471;28;20144;-77
2021/11/08 02:31:14;;;;;;;5.88;1.52;;;8.40;99.90;;;;;;5012356;28;20030;-78
2021/11/08 02:33:41;;;;;;;14.40;2.00;;;8.50;99.70;;;;;;5011180;28;20033;-78
2021/11/08 02:36:07;;;;;;;9.40;1.88;;;8.50;99.60;;;;;;5003059;28;20106;-78
2021/11/08 02:38:36;;;;;;;9.32;1.92;;;8.50;99.50;;;;;;5001694;28;20041;-78
2021/11/08 02:41:02;;;;;;;11.40;1.92;;;8.60;99.60;;;;;;4999083;28;20036;-80
2021/11/08 02:43:28;;;;;;;13.15;2.72;;;8.60;99.60;;;;;;5001941;28;20034;-81
2021/11/08 02:46:00;;;;;;;10.55;1.75;;;8.60;99.50;;;;;;5008696;28;20034;-80
2021/11/08 02:48:25;;;;;;;6.82;1.88;;;8.60;99.50;;;;;;5008016;28;20455;-78
2021/11/08 02:51:03;;;;;;;6.97;1.77;;;8.60;99.50;;;;;;5007350;28;20073;-80
2021/11/08 02:53:29;;;;;;;13.23;2.20;;;8.60;99.40;;;;;;4999190;28;20686;-79
2021/11/08 02:55:55;;;;;;;10.43;1.90;;;8.70;99.30;;;;;;5008659;28;20110;-80
2021/11/08 02:58:23;;;;;;;7.60;1.92;;;8.70;99.40;;;;;;4990243;28;20391;-79
2021/11/08 03:00:49;;;;;;;8.73;2.20;;;8.60;99.40;;;;;;4999579;28;20107;-81
2021/11/08 03:03:15;;;;;;;10.70;2.25;;;8.60;99.40;;;;;;4998480;28;20121;-81
2021/11/08 03:05:41;;;;;;;9.70;2.15;;;8.60;99.30;;;;;;5007727;28;20113;-80
2021/11/08 03:08:09;;;;;;;7.40;2.28;;;8.60;99.30;;;;;;5007144;28;20056;-77
2021/11/08 03:10:39;;;;;;;9.60;2.38;;;8.50;99.30;;;;;;5009162;28;20029;-79
2021/11/08 03:13:14;;;;;;;9.95;1.92;;;8.50;99.40;;;;;;5003943;28;20052;-78
2021/11/08 03:15:51;;;;;;;8.13;1.95;;;8.50;99.40;;;;;;5002390;28;20530;-79
2021/11/08 03:18:29;;;;;;;8.80;1.70;;;8.40;99.50;;;;;;4997777;28;20057;-81
2021/11/08 03:20:57;;;;;;;13.50;2.00;;;8.40;99.60;;;;;;5006973;28;20124;-79
2021/11/08 03:23:23;;;;;;;10.65;2.50;;;8.30;99.80;;;;;;5003858;28;20037;-78
2021/11/08 03:26:16;;;;;;;7.55;2.03;;;8.30;99.80;;;;;;5004215;28;20383;-80
2021/11/08 03:28:36;;;;;;;9.88;2.35;;;8.30;99.90;;;;;;4999514;28;20074;-80
2021/11/08 03:31:03;;;;;;;11.18;2.38;;;8.30;99.90;;;;;;5005319;28;20565;-80
2021/11/08 03:33:29;;;;;;;8.10;2.38;;;8.30;99.90;;;;;;4996317;28;20042;-79
2021/11/08 03:35:57;;;;;;;5.72;1.58;;;8.30;99.90;;;;;;5015377;28;20043;-80
2021/11/08 03:38:23;;;;;;;11.35;2.17;;;8.40;99.80;;;;;;5007538;28;20115;-77
2021/11/08 03:40:48;;;;;;;10.77;2.25;;;8.40;99.80;;;;;;4996079;28;20086;-81
2021/11/08 03:43:18;;;;;;;9.20;2.97;;;8.40;99.60;;;;;;4996767;28;20113;-78
2021/11/08 03:45:45;;;;;;;5.97;2.13;;;8.40;99.80;;;;;;5011019;28;20089;-80
2021/11/08 03:48:13;;;;;;;8.40;2.20;;;8.30;99.70;;;;;;5008546;28;20030;-79
2021/11/08 03:50:39;;;;;;;8.75;1.55;;;8.30;99.70;;;;;;5001324;28;20028;-80
2021/11/08 03:53:05;;;;;;;12.68;2.28;;;8.30;99.70;;;;;;5004666;28;20033;-77
2021/11/08 03:55:31;;;;;;;8.38;2.17;;;8.30;99.70;;;;;;5005963;28;20061;-78
2021/11/08 03:57:56;;;;;;;8.18;2.10;;;8.30;99.80;;;;;;4999711;28;20096;-79
2021/11/08 04:00:25;;;;;;;14.73;5.55;;;8.30;99.90;;;;;;5017371;28;20117;-78
2021/11/08 04:02:54;;;;;;;9.57;1.70;;;8.30;99.80;;;;;;4993823;28;20030;-79
2021/11/08 04:05:21;;;;;;;8.75;1.80;;;8.30;99.80;;;;;;4996584;28;20038;-78
2021/11/08 04:07:47;;;;;;;12.60;2.40;;;8.40;99.80;;;;;;5003951;28;20513;-79
2021/11/08 04:10:15;;;;;;;13.45;2.63;;;8.40;99.70;;;;;;5007375;28;20054;-78
2021/11/08 04:12:42;;;;;;;11.57;2.60;;;8.40;99.70;;;;;;5008001;28;20072;-78
2021/11/08 04:15:10;;;;;;;11.25;2.40;;;8.40;99.70;;;;;;4997065;28;20072;-81
2021/11/08 04:17:42;;;;;;;10.48;2.10;;;8.50;99.50;;;;;;5011802;28;20053;-78
2021/11/08 04:20:08;;;;;;;9.90;2.00;;;8.40;99.60;;;;;;5003663;28;20037;-80
2021/11/08 04:22:34;;;;;;;9.05;2.92;;;8.40;99.70;;;;;;5002737;28;20038;-78
2021/11/08 04:25:00;;;;;;;8.60;2.17;;;8.30;99.80;;;;;;4998867;28;20376;-80
2021/11/08 04:27:26;;;;;;;6.15;2.25;;;8.30;99.80;;;;;;5009663;28;20073;-79
2021/11/08 04:29:52;;;;;;;11.48;2.60;;;8.20;99.90;;;;;;5009357;28;20429;-78
2021/11/08 04:32:18;;;;;;;7.18;1.98;;;8.20;99.90;;;;;;5010356;28;20030;-80
2021/11/08 04:34:48;;;;;;;12.13;2.42;;;8.20;99.90;;;;;;5005027;28;20033;-80
2021/11/08 04:37:27;;;;;;;9.98;2.17;;;8.20;99.90;;;;;;4999680;28;20030;-79
2021/11/08 04:51:31;;;;;;;13.63;3.28;;;8.30;99.90;;;;;;4996203;28;20084;-80
2021/11/08 04:53:26;;;;;;;11.68;2.30;;;8.30;99.90;;;;;;5002016;28;20042;-78
2021/11/08 04:56:26;;;;;;;9.60;4.47;;;8.30;99.90;;;;;;5001109;28;20022;-79
2021/11/08 05:24:00;;;;;;;14.52;3.15;;;8.50;99.90;;;;;;4992195;28;20084;-80
2021/11/08 05:27:52;;;;;;;12.23;3.33;;;8.50;99.80;;;;;;5000299;28;20120;-81
2021/11/08 05:31:47;;;;;;;5.38;2.95;;;8.50;99.80;;;;;;5006358;28;20034;-80
2021/11/08 05:34:14;;;;;;;10.40;3.53;;;8.50;99.80;;;;;;5023192;28;20644;-80
2021/11/08 05:36:40;;;;;;;10.55;3.65;;;8.50;99.80;;;;;;5009056;28;20021;-81
2021/11/08 05:39:07;;;;;;;11.93;4.00;;;8.50;99.80;;;;;;5009552;28;20056;-80
2021/11/08 05:41:34;;;;;;;9.35;3.70;;;8.40;99.90;;;;;;5008624;28;20573;-80
2021/11/08 05:44:02;;;;;;;12.75;4.68;;;8.40;99.90;;;;;;5009670;28;20108;-79
2021/11/08 05:46:27;;;;;;;8.43;3.75;;;8.40;99.90;;;;;;5010283;28;20108;-80
2021/11/08 05:48:54;;;;;;;8.65;3.80;;;8.40;99.90;;;;;;5009331;28;20172;-80
2021/11/08 05:51:19;;;;;;;12.52;4.30;;;8.40;99.90;;;;;;5017022;28;20057;-77
2021/11/08 05:53:48;;;;;;;12.38;3.70;;;8.40;99.90;;;;;;5005536;28;20514;-79
2021/11/08 05:56:20;;;;;;;10.80;3.72;;;8.40;99.90;;;;;;5009241;28;20030;-81
2021/11/08 06:50:29;;;;;;;11.07;2.95;;;8.10;99.90;;;;;;5016098;28;20079;-79
2021/11/08 06:53:01;;;;;;;13.68;2.80;;;8.10;99.90;;;;;;5009126;28;20124;-77
2021/11/08 06:55:26;;;;;;;5.85;2.72;;;8.10;99.90;;;;;;5006760;28;20094;-79
2021/11/08 06:58:00;;;;;;;15.63;3.08;;;8.10;99.90;;;;;;5007270;28;20061;-80
2021/11/08 07:00:26;;;;;;;9.40;3.40;;;8.10;99.90;;;;;;5009023;28;20034;-81
2021/11/08 07:02:51;;;;;;;12.13;3.22;;;8.10;99.90;;;;;;5005978;28;20038;-81
2021/11/08 07:05:17;;;;;;;13.60;3.85;;;8.10;99.90;;;;;;5004287;28;20029;-79
2021/11/08 07:07:42;;;;;;;7.82;2.70;;;8.10;99.90;;;;;;5000102;28;20423;-80
2021/11/08 07:10:08;;;;;;;11.82;2.70;;;8.20;99.90;;;;;;5001614;28;20443;-82
2021/11/08 07:12:35;;;;;;;11.68;3.03;;;8.20;99.90;;;;;;5010371;28;20097;-80
2021/11/08 07:15:01;;;;;;;17.20;3.35;;;8.30;99.90;;;;;;5003719;28;20363;-79
2021/11/08 07:17:27;;;;;;;6.25;2.78;;;8.30;99.90;;;;;;4999240;28;20037;-80
2021/11/08 07:19:53;;;;;;;9.40;2.70;;;8.40;99.90;;;;;;5002866;28;20041;-78
2021/11/08 07:22:19;;;;;;;12.02;3.00;;;8.40;99.90;;;;;;5009096;28;20046;-80
2021/11/08 07:24:45;;;;;;;11.55;3.30;;;8.50;99.90;;;;;;5011288;28;20065;-79
2021/11/08 07:27:10;;;;;;;11.82;2.85;;;8.50;99.90;;;;;;5010835;28;20121;-79
2021/11/08 07:29:37;;;;;;;10.05;3.40;;;8.60;99.90;;;;;;5005483;28;20057;-77
2021/11/08 07:32:05;;;;;;;10.95;2.75;;;8.60;99.90;;;;;;4999105;28;20046;-81
2021/11/08 07:34:31;;;;;;;11.35;2.92;;;8.60;99.90;;;;;;5008706;28;20061;-81
2021/11/08 07:36:57;;;;;;;15.85;3.22;;;8.60;99.90;;;;;;5007719;28;20046;-81
2021/11/08 07:39:23;;;;;;;10.30;3.03;;;8.60;99.80;;;;;;5006431;28;20037;-81
2021/11/08 07:41:49;;;;;;;10.55;3.00;;;8.60;99.80;;;;;;5008243;28;20036;-80
2021/11/08 07:44:15;;;;;;;7.93;2.92;;;8.70;99.80;;;;;;4998471;28;20057;-79
2021/11/08 07:46:41;;;;;;;18.42;3.13;;;8.70;99.70;;;;;;5001914;28;20084;-81
2021/11/08 07:49:07;;;;;;;15.15;2.83;;;8.80;99.70;;;;;;5004410;28;20077;-81
2021/11/08 07:51:33;;;;;;;11.05;3.17;;;8.80;99.70;;;;;;5006014;28;20058;-81
2021/11/08 07:53:58;;;;;;;13.02;3.00;;;8.90;99.50;;;;;;5004559;28;20475;-81
2021/11/08 07:56:24;;;;;;;9.32;2.95;;;8.90;99.80;;;;;;5006142;28;20110;-79
2021/11/08 07:58:49;;;;;;;17.13;3.40;;;9.00;99.50;;;;;;5003154;28;20034;-78
2021/11/08 08:01:16;;;;;;;12.05;3.92;;;9.00;99.60;;;;;;5020534;28;20675;-78
2021/11/08 08:03:41;;;;;;;8.90;2.80;;;9.10;99.50;;;;;;5004982;28;20053;-79
2021/11/08 08:06:07;;;;;;;11.38;3.28;;;9.20;99.50;;;;;;5006229;28;20034;-80
2021/11/08 08:08:34;;;;;;;7.22;3.00;;;9.30;99.30;;;;;;5013560;28;20068;-80
2021/11/08 08:11:02;;;;;;;12.05;2.80;;;9.40;99.30;;;;;;5001712;28;20041;-81
2021/11/08 08:13:29;;;;;;;6.60;2.72;;;9.50;99.20;;;;;;5009026;28;20029;-79
2021/11/08 08:15:59;;;;;;;11.65;2.55;;;9.60;99.00;;;;;;5001023;28;20439;-77
2021/11/08 08:18:28;;;;;;;9.63;3.00;;;9.70;98.80;;;;;;5002929;28;20036;-78
2021/11/08 08:20:54;;;;;;;10.13;2.83;;;9.80;98.70;;;;;;5004271;28;20057;-79
2021/11/08 08:23:20;;;;;;;14.57;2.90;;;9.90;98.30;;;;;;5001586;28;20057;-82
2021/11/08 08:25:46;;;;;;;13.25;3.03;;;9.90;98.10;;;;;;4994930;28;20041;-81
2021/11/08 08:28:12;;;;;;;11.98;3.47;;;10.00;98.30;;;;;;5005214;28;20129;-79
2021/11/08 08:30:38;;;;;;;6.47;2.25;;;10.00;98.20;;;;;;5002458;28;20117;-79
2021/11/08 08:33:04;;;;;;;10.90;2.10;;;10.10;98.20;;;;;;5009249;28;20042;-79
2021/11/08 08:35:29;;;;;;;8.40;3.20;;;10.20;97.90;;;;;;5005437;28;20479;-77
2021/11/08 08:37:55;;;;;;;10.38;2.75;;;10.30;97.80;;;;;;5003682;28;20038;-81
2021/11/08 08:40:21;;;;;;;7.40;2.83;;;10.30;97.60;;;;;;4998420;28;20100;-80
2021/11/08 08:42:47;;;;;;;10.43;3.08;;;10.30;97.70;;;;;;5023219;28;20117;-78
2021/11/08 08:45:12;;;;;;;8.90;3.13;;;10.30;97.90;;;;;;5010210;28;20125;-81
2021/11/08 08:47:38;;;;;;;7.18;3.40;;;10.30;97.50;;;;;;5009303;28;20748;-80
2021/11/08 08:50:05;;;;;;;12.98;3.53;;;10.30;97.60;;;;;;5011691;28;20028;-79
2021/11/08 08:52:31;;;;;;;12.88;3.63;;;10.40;97.40;;;;;;5014597;28;20026;-79
2021/11/08 08:54:57;;;;;;;11.13;3.38;;;10.40;97.10;;;;;;5000838;28;20053;-81
2021/11/08 08:57:23;;;;;;;19.83;3.45;;;10.40;97.10;;;;;;5028621;28;20522;-79
2021/11/08 08:59:50;;;;;;;9.80;3.53;;;10.50;97.30;;;;;;5006397;28;20407;-81
2021/11/08 09:02:16;;;;;;;15.10;3.88;;;10.50;97.30;;;;;;5009742;28;20026;-77
2021/11/08 09:04:41;;;;;;;9.23;2.63;;;10.50;97.20;;;;;;5012248;28;20041;-78
2021/11/08 09:07:07;;;;;;;10.23;3.30;;;10.60;96.60;;;;;;5013535;28;20435;-82
2021/11/08 09:09:36;;;;;;;13.15;3.03;;;10.50;96.90;;;;;;5013881;28;20740;-80
2021/11/08 09:12:02;;;;;;;10.75;2.83;;;10.50;96.90;;;;;;5014017;28;20109;-79
2021/11/08 09:14:33;;;;;;;7.88;3.28;;;10.50;97.00;;;;;;5013616;28;20041;-79
2021/11/08 09:17:01;;;;;;;17.13;2.90;;;10.40;97.10;;;;;;5012429;28;20034;-80
2021/11/08 09:19:27;;;;;;;11.07;3.00;;;10.40;97.00;;;;;;5006015;28;20072;-81
2021/11/08 09:21:53;;;;;;;7.15;3.03;;;10.50;97.10;;;;;;5014633;28;20038;-82
2021/11/08 09:24:21;;;;;;;14.10;4.38;;;10.50;96.90;;;;;;5003402;28;20038;-79
2021/11/08 09:26:48;;;;;;;9.40;3.25;;;10.50;96.80;;;;;;5008767;28;20627;-78
2021/11/08 09:29:13;;;;;;;10.73;2.72;;;10.50;96.70;;;;;;5015411;28;20052;-80
2021/11/08 09:31:39;;;;;;;12.23;3.78;;;10.50;96.60;;;;;;5006081;28;20034;-81
2021/11/08 09:34:08;;;;;;;13.38;2.95;;;10.50;96.90;;;;;;5010233;28;20033;-79
2021/11/08 09:36:35;;;;;;;8.32;3.05;;;10.60;96.90;;;;;;5006638;28;20053;-81
2021/11/08 09:39:05;;;;;;;9.35;3.25;;;10.70;96.70;;;;;;5013415;28;20044;-82
2021/11/08 09:41:34;;;;;;;10.73;3.20;;;10.70;96.50;;;;;;4996615;28;20023;-79
2021/11/08 09:44:03;;;;;;;11.80;2.45;;;10.70;96.60;;;;;;5009715;28;20029;-81
2021/11/08 09:46:30;;;;;;;6.15;1.85;;;10.80;96.50;;;;;;5012079;28;20025;-80
2021/11/08 09:48:59;;;;;;;9.57;3.25;;;10.90;96.00;;;;;;5010514;28;20088;-80
2021/11/08 09:51:25;;;;;;;8.20;2.30;;;11.00;96.20;;;;;;5007842;28;20045;-79
2021/11/08 09:53:51;;;;;;;7.25;2.63;;;11.10;95.90;;;;;;5009293;28;20046;-80
2021/11/08 09:56:16;;;;;;;8.95;2.40;;;11.30;95.80;;;;;;5009988;28;20092;-81
2021/11/08 09:58:42;;;;;;;6.55;2.08;;;11.40;96.00;;;;;;5011932;28;20029;-82
2021/11/08 10:01:11;;;;;;;6.65;2.25;;;11.50;95.10;;;;;;5019282;28;20068;-79
2021/11/08 10:03:37;;;;;;;13.55;2.30;;;11.60;95.10;;;;;;5019973;28;20025;-81
2021/11/08 10:06:04;;;;;;;7.45;2.67;;;11.60;95.20;;;;;;5009255;28;20481;-80
2021/11/08 10:08:33;;;;;;;10.15;3.67;;;11.60;95.30;;;;;;5008944;28;20030;-82
2021/11/08 10:11:09;;;;;;;8.57;2.58;;;11.70;95.10;;;;;;5008013;28;20494;-80
2021/11/08 10:13:36;;;;;;;9.77;3.00;;;11.70;94.90;;;;;;5005694;28;20084;-79
2021/11/08 10:16:06;;;;;;;9.45;3.15;;;11.60;95.10;;;;;;5010037;28;20097;-80
2021/11/08 10:18:32;;;;;;;9.55;3.05;;;11.60;95.00;;;;;;5004411;28;20030;-81
2021/11/08 10:21:26;;;;;;;10.18;2.40;;;11.60;95.00;;;;;;4993079;28;20391;-80
2021/11/08 10:23:55;;;;;;;12.90;3.10;;;11.60;95.10;;;;;;5001076;28;20045;-81
2021/11/08 10:26:28;;;;;;;6.60;2.17;;;11.60;95.00;;;;;;5009010;28;20030;-82
2021/11/08 10:28:56;;;;;;;13.52;3.00;;;11.60;95.00;;;;;;5024079;28;20064;-81
2021/11/08 10:31:30;;;;;;;8.93;2.90;;;11.60;95.20;;;;;;5008737;28;20479;-80
2021/11/08 10:33:58;;;;;;;8.05;3.10;;;11.60;95.20;;;;;;5008660;28;20030;-79
2021/11/08 10:36:24;;;;;;;7.80;2.83;;;11.70;95.10;;;;;;5013664;28;20034;-80
2021/11/08 10:38:53;;;;;;;8.95;2.65;;;11.80;95.00;;;;;;5015509;28;20117;-79
2021/11/08 10:41:24;;;;;;;11.27;2.45;;;11.80;94.90;;;;;;5015536;28;20057;-79
2021/11/08 10:43:53;;;;;;;14.68;2.50;;;11.90;94.80;;;;;;5019376;28;20040;-79
2021/11/08 10:46:35;;;;;;;13.10;3.53;;;11.90;94.60;;;;;;5033801;28;20091;-80
2021/11/08 10:49:19;;;;;;;6.65;1.98;;;12.00;94.20;;;;;;5028297;28;20048;-81
2021/11/08 10:51:48;;;;;;;8.38;2.35;;;12.00;94.30;;;;;;5007596;28;20100;-80
2021/11/08 10:54:20;;;;;;;9.55;2.58;;;11.90;94.00;;;;;;5010877;28;20471;-82
2021/11/08 10:56:55;;;;;;;7.40;2.38;;;11.90;94.10;;;;;;5009522;28;20057;-78
2021/11/08 10:59:25;;;;;;;8.27;1.77;;;11.90;93.80;;;;;;5010180;28;20041;-79
2021/11/08 11:01:54;;;;;;;6.15;2.47;;;11.90;93.90;;;;;;5008156;28;20064;-82
2021/11/08 11:04:43;;;;;;;7.18;1.65;;;11.90;94.00;;;;;;5012070;28;20405;-80
2021/11/08 11:07:21;;;;;;;11.70;2.30;;;11.90;94.10;;;;;;5017649;28;20675;-80
2021/11/08 11:09:47;;;;;;;10.63;2.00;;;11.90;94.20;;;;;;5024396;28;20049;-80
2021/11/08 11:12:22;;;;;;;8.90;1.98;;;11.90;94.50;;;;;;5007928;28;20546;-79
2021/11/08 11:14:54;;;;;;;7.07;1.95;;;12.00;94.30;;;;;;5019134;28;20055;-79
2021/11/08 11:17:42;;;;;;;6.82;1.65;;;12.10;94.30;;;;;;5016581;28;20049;-82
2021/11/08 11:20:15;;;;;;;9.30;1.98;;;12.30;94.00;;;;;;5007314;28;20398;-82
2021/11/08 11:22:46;;;;;;;8.10;2.45;;;12.40;94.10;;;;;;4997874;28;20064;-79
2021/11/08 11:25:14;;;;;;;7.07;1.92;;;12.40;93.50;;;;;;5007721;28;20619;-80
2021/11/08 11:27:48;;;;;;;6.15;1.35;;;12.50;93.40;;;;;;5006825;28;20021;-81
2021/11/08 11:30:20;;;;;;;7.50;2.00;;;12.50;93.10;;;;;;4992023;28;20404;-79
2021/11/08 11:33:00;;;;;;;;;;;12.40;92.80;;;;;;5006145;28;20108;-80
2021/11/08 11:35:36;;;;;;;10.57;2.42;;;12.30;93.20;;;;;;5007429;28;19917;-83
2021/11/08 11:38:07;;;;;;;8.52;1.88;;;12.10;93.20;;;;;;4995464;28;20036;-80
2021/11/08 11:40:39;;;;;;;4.25;2.13;;;11.90;93.70;;;;;;4996271;28;20030;-80
2021/11/08 11:43:08;;;;;;;8.15;2.08;;;11.80;94.00;;;;;;5005749;28;20457;-80
2021/11/08 11:45:55;;;;;;;11.23;1.98;;;11.80;93.90;;;;;;5007001;28;20033;-80
2021/11/08 11:48:28;;;;;;;9.77;1.88;;;11.80;94.10;;;;;;5007086;28;20109;-81
2021/11/08 11:50:54;;;;;;;5.97;2.38;;;11.80;94.20;;;;;;4989940;28;20022;-78
2021/11/08 11:53:19;;;;;;;6.65;1.90;;;11.80;94.10;;;;;;4998165;28;20479;-78
2021/11/08 11:55:46;;;;;;;6.32;2.53;;;11.70;93.90;;;;;;5007310;28;20049;-80
2021/11/08 11:58:13;;;;;;;8.50;2.08;;;11.70;94.00;;;;;;4996718;28;20049;-79
2021/11/08 12:00:41;;;;;;;8.80;1.85;;;11.70;94.00;;;;;;5014343;28;20030;-79
2021/11/08 12:03:07;;;;;;;12.10;2.75;;;11.70;93.80;;;;;;5008956;28;20414;-79
2021/11/08 12:05:35;;;;;;;8.00;1.77;;;11.80;93.80;;;;;;5009728;28;20038;-78
2021/11/08 12:08:04;;;;;;;5.03;2.03;;;11.80;93.80;;;;;;5009453;28;20045;-78
2021/11/08 12:10:31;;;;;;;4.28;1.95;;;11.70;93.50;;;;;;5005954;28;20483;-78
2021/11/08 12:12:56;;;;;;;10.43;2.78;;;11.70;93.90;;;;;;5006043;28;20037;-79
2021/11/08 12:15:32;;;;;;;9.40;2.75;;;11.60;94.20;;;;;;5021511;28;20129;-79
2021/11/08 12:18:08;;;;;;;6.63;2.67;;;11.70;93.90;;;;;;5019169;28;20088;-80
2021/11/08 12:20:41;;;;;;;9.60;2.60;;;11.70;93.90;;;;;;5011301;28;20018;-80
2021/11/08 12:23:11;;;;;;;;;;;11.70;94.10;;;;;;5000488;28;20042;-80
2021/11/08 12:25:41;;;;;;;6.07;1.75;;;11.60;94.00;;;;;;4992394;28;20350;-79
2021/11/08 12:28:09;;;;;;;9.00;2.50;;;11.50;94.10;;;;;;5015729;28;20065;-81
2021/11/08 12:30:40;;;;;;;5.32;1.95;;;11.40;93.80;;;;;;5011143;28;20041;-79
2021/11/08 12:33:09;;;;;;;11.13;2.08;;;11.40;94.20;;;;;;4992985;28;20038;-81
2021/11/08 12:35:38;;;;;;;4.10;1.75;;;11.40;94.00;;;;;;4991068;28;20109;-80
2021/11/08 12:38:27;;;;;;;6.03;1.48;;;11.40;94.20;;;;;;5006384;28;20103;-79
2021/11/08 12:41:10;;;;;;;8.00;1.50;;;11.40;94.40;;;;;;5006655;28;20507;-80
2021/11/08 12:43:40;;;;;;;7.30;1.92;;;11.40;94.40;;;;;;5001939;28;20022;-82
2021/11/08 12:46:33;;;;;;;9.63;3.08;;;11.30;94.30;;;;;;5005341;28;20042;-81
2021/11/08 12:49:16;;;;;;;6.97;2.25;;;11.40;94.30;;;;;;5006779;28;20482;-79
2021/11/08 12:52:13;;;;;;;7.78;2.42;;;11.40;94.40;;;;;;5010776;28;20036;-79
2021/11/08 12:54:55;;;;;;;6.40;1.92;;;11.40;94.50;;;;;;5012230;28;20045;-77
2021/11/08 12:57:23;;;;;;;13.25;2.42;;;11.30;94.70;;;;;;5027216;28;20025;-80
2021/11/08 13:00:01;;;;;;;8.93;2.25;;;11.30;94.90;;;;;;5021203;28;20499;-79
2021/11/08 13:02:35;;;;;;;9.18;2.53;;;11.40;94.80;;;;;;5010007;28;20687;-79
2021/11/08 13:05:05;;;;;;;10.13;2.00;;;11.40;94.50;;;;;;5010675;28;20033;-78
2021/11/08 13:07:36;;;;;;;10.15;1.92;;;11.30;94.50;;;;;;5009180;28;20086;-78
2021/11/08 13:10:07;;;;;;;6.93;2.40;;;11.40;94.50;;;;;;5013211;28;20409;-78
2021/11/08 13:12:39;;;;;;;6.53;2.10;;;11.30;94.40;;;;;;5011971;28;20030;-79
2021/11/08 13:15:13;;;;;;;5.50;1.70;;;11.40;94.50;;;;;;5014565;28;20629;-79
2021/11/08 13:18:10;;;;;;;11.30;1.85;;;11.30;94.90;;;;;;5007144;28;20083;-79
2021/11/08 13:20:42;;;;;;;6.25;2.30;;;11.30;94.50;;;;;;5015364;28;20026;-79
2021/11/08 13:23:15;;;;;;;10.97;2.30;;;11.30;94.30;;;;;;5010710;28;20363;-78
2021/11/08 13:25:47;;;;;;;10.50;2.05;;;11.30;94.50;;;;;;5007824;28;20030;-78
2021/11/08 13:28:18;;;;;;;11.05;2.65;;;11.30;94.50;;;;;;4990374;28;20715;-79
2021/11/08 13:30:47;;;;;;;5.85;2.10;;;11.30;94.10;;;;;;4998683;28;20709;-82
2021/11/08 13:33:15;;;;;;;5.03;1.80;;;11.30;93.70;;;;;;5010994;28;20722;-79
2021/11/08 13:35:43;;;;;;;6.72;1.90;;;11.30;93.70;;;;;;5009586;28;20085;-78
2021/11/08 13:38:16;;;;;;;6.18;1.90;;;11.40;93.80;;;;;;5007119;28;20115;-78
2021/11/08 13:40:49;;;;;;;5.85;2.22;;;11.30;94.30;;;;;;5009815;28;20042;-77
2021/11/08 13:43:22;;;;;;;10.10;2.03;;;11.40;94.20;;;;;;5009181;28;20354;-79
2021/11/08 13:45:53;;;;;;;9.68;2.28;;;11.40;94.80;;;;;;5009848;28;20018;-78
2021/11/08 13:48:30;;;;;;;8.55;2.08;;;11.40;94.80;;;;;;5009217;28;20038;-78
2021/11/08 13:51:00;;;;;;;7.03;2.00;;;11.30;94.70;;;;;;5023110;28;20105;-79
2021/11/08 13:53:33;;;;;;;8.10;1.95;;;11.30;94.70;;;;;;5024779;28;20053;-79
2021/11/08 13:56:02;;;;;;;10.48;2.53;;;11.30;94.80;;;;;;5006712;28;20053;-80
2021/11/08 13:58:29;;;;;;;12.40;2.92;;;11.30;94.60;;;;;;5009364;28;20038;-81
2021/11/08 14:01:08;;;;;;;13.65;2.63;;;11.30;95.00;;;;;;5009796;28;20037;-80
2021/11/08 14:03:45;;;;;;;6.05;2.35;;;11.40;94.70;;;;;;5016964;28;20034;-79
2021/11/08 14:06:15;;;;;;;7.90;2.17;;;11.40;94.40;;;;;;5006609;28;20030;-80
2021/11/08 14:08:46;;;;;;;9.13;2.38;;;11.40;94.70;;;;;;5006625;28;20026;-79
2021/11/08 14:11:12;;;;;;;5.72;2.75;;;11.40;94.60;;;;;;4996886;28;20053;-78
2021/11/08 14:13:42;;;;;;;7.38;2.10;;;11.30;94.70;;;;;;4994330;28;20053;-79
2021/11/08 14:16:10;;;;;;;15.32;6.30;;;11.40;94.90;;;;;;5008364;28;20505;-76
2021/11/08 14:18:36;;;;;;;16.23;7.00;;;11.40;94.80;;;;;;5007720;28;20407;-79
2021/11/08 14:21:13;;;;;;;8.65;2.33;;;11.30;95.00;;;;;;5010204;28;20789;-80
2021/11/08 14:23:40;;;;;;;10.63;3.88;;;11.20;95.10;;;;;;5010531;28;20018;-79
2021/11/08 14:26:12;;;;;;;8.77;2.35;;;11.10;95.30;;;;;;5010426;28;20080;-80
2021/11/08 14:28:38;;;;;;;8.93;2.95;;;11.10;95.30;;;;;;5008925;28;20044;-79
2021/11/08 14:31:15;;;;;;;6.35;2.33;;;11.10;95.40;;;;;;5009969;28;20462;-78